createdAt,value
2023-01-20T00:00:45.681Z,1.50
2023-01-20T00:03:12.614Z,1.50
2023-01-20T00:05:39.590Z,1.50
2023-01-20T00:08:06.598Z,1.60
2023-01-20T00:10:33.728Z,1.60
2023-01-20T00:13:00.629Z,1.60
2023-01-20T00:15:27.618Z,1.60
2023-01-20T00:17:54.773Z,1.60
2023-01-20T00:20:21.736Z,1.60
2023-01-20T00:22:48.680Z,1.60
2023-01-20T00:25:16.202Z,1.60
2023-01-20T00:27:43.449Z,1.60
2023-01-20T00:30:11.030Z,1.60
2023-01-20T00:32:47.265Z,1.60
2023-01-20T00:35:15.029Z,1.60
2023-01-20T00:37:43.162Z,1.70
2023-01-20T00:40:10.729Z,1.70
2023-01-20T00:42:37.697Z,1.70
2023-01-20T00:45:04.918Z,1.70
2023-01-20T00:47:32.134Z,1.70
2023-01-20T00:49:59.170Z,1.80
2023-01-20T00:52:26.257Z,1.80
2023-01-20T00:54:53.270Z,1.80
2023-01-20T00:57:20.200Z,1.80
2023-01-20T00:59:47.237Z,1.80
2023-01-20T01:02:14.217Z,1.90
2023-01-20T01:04:41.299Z,1.90
2023-01-20T01:07:08.241Z,1.80
2023-01-20T01:09:35.445Z,1.80
2023-01-20T01:12:02.404Z,1.80
2023-01-20T01:14:32.404Z,1.80
2023-01-20T01:16:59.679Z,1.80
2023-01-20T01:19:26.599Z,1.80
2023-01-20T01:21:55.227Z,1.80
2023-01-20T01:24:22.281Z,1.80
2023-01-20T01:26:54.541Z,1.80
2023-01-20T01:29:21.530Z,1.80
2023-01-20T01:31:49.356Z,1.80
2023-01-20T01:34:16.400Z,1.80
2023-01-20T01:36:43.447Z,1.80
2023-01-20T01:39:10.753Z,1.80
2023-01-20T01:41:37.659Z,1.80
2023-01-20T01:44:10.653Z,1.90
2023-01-20T01:46:38.276Z,1.90
2023-01-20T01:49:20.380Z,1.90
2023-01-20T01:51:53.286Z,1.90
2023-01-20T01:54:27.583Z,1.90
2023-01-20T01:56:54.611Z,1.90
2023-01-20T01:59:22.096Z,1.90
2023-01-20T02:01:51.886Z,1.90
2023-01-20T02:04:27.012Z,1.90
2023-01-20T02:07:04.643Z,1.90
2023-01-20T02:09:32.139Z,1.90
2023-01-20T02:12:03.182Z,1.90
2023-01-20T02:14:41.551Z,1.90
2023-01-20T02:17:26.714Z,1.90
2023-01-20T02:20:17.901Z,1.90
2023-01-20T02:23:07.430Z,2.00
2023-01-20T02:25:55.635Z,2.00
2023-01-20T02:28:50.391Z,2.00
2023-01-20T02:31:55.836Z,2.00
2023-01-20T02:34:31.742Z,2.00
2023-01-20T02:37:06.642Z,1.90
2023-01-20T02:39:48.740Z,2.00
2023-01-20T02:42:32.396Z,1.90
2023-01-20T02:45:22.950Z,2.00
2023-01-20T02:48:02.943Z,2.00
2023-01-20T02:50:40.239Z,1.90
2023-01-20T02:53:09.095Z,1.90
2023-01-20T02:55:43.757Z,1.90
2023-01-20T02:58:27.687Z,1.90
2023-01-20T03:01:02.311Z,1.90
2023-01-20T03:03:37.148Z,1.90
2023-01-20T03:06:08.552Z,1.90
2023-01-20T03:08:38.602Z,1.80
2023-01-20T03:11:07.966Z,1.80
2023-01-20T03:13:37.748Z,1.80
2023-01-20T03:16:15.737Z,1.80
2023-01-20T03:18:42.872Z,1.80
2023-01-20T03:21:10.994Z,1.80
2023-01-20T03:23:47.872Z,1.80
2023-01-20T03:26:16.372Z,1.80
2023-01-20T03:28:47.360Z,1.80
2023-01-20T03:31:22.938Z,1.80
2023-01-20T03:33:56.565Z,1.80
2023-01-20T03:36:28.012Z,1.80
2023-01-20T03:38:56.160Z,1.80
2023-01-20T03:41:48.834Z,1.80
2023-01-20T03:44:21.925Z,1.80
2023-01-20T03:47:26.554Z,1.80
2023-01-20T03:50:12.039Z,1.80
2023-01-20T03:52:54.567Z,1.70
2023-01-20T03:55:51.123Z,1.80
2023-01-20T03:58:24.371Z,1.80
2023-01-20T04:00:52.212Z,1.70
2023-01-20T04:03:36.720Z,1.70
2023-01-20T04:06:06.513Z,1.80
2023-01-20T04:08:39.427Z,1.80
2023-01-20T04:11:08.274Z,1.80
2023-01-20T04:13:35.753Z,1.80
2023-01-20T04:16:05.432Z,1.70
2023-01-20T04:18:32.351Z,1.70
2023-01-20T04:21:03.662Z,1.70
2023-01-20T04:23:37.046Z,1.60
2023-01-20T04:26:04.062Z,1.60
2023-01-20T04:28:32.246Z,1.60
2023-01-20T04:30:59.406Z,1.60
2023-01-20T04:33:26.710Z,1.60
2023-01-20T04:35:56.333Z,1.60
2023-01-20T04:38:23.295Z,1.60
2023-01-20T04:40:50.380Z,1.60
2023-01-20T04:43:18.458Z,1.70
2023-01-20T04:45:45.510Z,1.70
2023-01-20T04:48:13.188Z,1.70
2023-01-20T04:50:41.151Z,1.70
2023-01-20T04:53:11.759Z,1.70
2023-01-20T04:55:38.758Z,1.70
2023-01-20T04:58:05.808Z,1.70
2023-01-20T05:00:35.481Z,1.70
2023-01-20T05:03:02.836Z,1.70
2023-01-20T05:05:29.836Z,1.70
2023-01-20T05:07:57.295Z,1.70
2023-01-20T05:10:27.417Z,1.70
2023-01-20T05:12:54.514Z,1.70
2023-01-20T05:15:21.435Z,1.70
2023-01-20T05:17:48.386Z,1.70
2023-01-20T05:20:15.652Z,1.80
2023-01-20T05:22:42.533Z,1.80
2023-01-20T05:25:09.616Z,1.80
2023-01-20T05:27:37.246Z,1.80
2023-01-20T05:30:06.363Z,1.70
2023-01-20T05:32:33.747Z,1.80
2023-01-20T05:35:00.652Z,1.70
2023-01-20T05:37:27.761Z,1.70
2023-01-20T05:39:54.770Z,1.70
2023-01-20T05:42:21.693Z,1.70
2023-01-20T05:44:48.716Z,1.80
2023-01-20T05:47:15.885Z,1.80
2023-01-20T05:49:42.773Z,1.80
2023-01-20T05:52:09.783Z,1.80
2023-01-20T05:54:36.927Z,1.70
2023-01-20T05:57:05.365Z,1.70
2023-01-20T05:59:32.554Z,1.70
2023-01-20T06:01:59.734Z,1.70
2023-01-20T06:04:26.846Z,1.70
2023-01-20T06:06:56.420Z,1.70
2023-01-20T06:09:26.433Z,1.70
2023-01-20T06:11:53.298Z,1.70
2023-01-20T06:14:20.352Z,1.70
2023-01-20T06:16:47.418Z,1.70
2023-01-20T06:19:14.520Z,1.70
2023-01-20T06:21:41.470Z,1.70
2023-01-20T06:24:08.541Z,1.70
2023-01-20T06:26:35.476Z,1.70
2023-01-20T06:29:02.452Z,1.70
2023-01-20T06:31:29.503Z,1.70
2023-01-20T06:33:56.645Z,1.70
2023-01-20T06:36:27.071Z,1.70
2023-01-20T06:38:56.762Z,1.70
2023-01-20T06:41:27.104Z,1.70
2023-01-20T06:43:57.167Z,1.70
2023-01-20T06:46:25.532Z,1.70
2023-01-20T06:48:52.796Z,1.70
2023-01-20T06:51:20.960Z,1.70
2023-01-20T06:53:48.254Z,1.70
2023-01-20T06:56:16.307Z,1.80
2023-01-20T06:58:43.788Z,1.70
2023-01-20T07:01:18.629Z,1.70
2023-01-20T07:03:45.794Z,1.70
2023-01-20T07:06:20.761Z,1.70
2023-01-20T07:08:47.866Z,1.70
2023-01-20T07:11:14.867Z,1.70
2023-01-20T07:13:42.182Z,1.70
2023-01-20T07:16:12.007Z,1.80
2023-01-20T07:18:40.677Z,1.80
2023-01-20T07:21:09.386Z,1.70
2023-01-20T07:23:36.403Z,1.80
2023-01-20T07:26:06.254Z,1.80
2023-01-20T07:28:36.275Z,1.70
2023-01-20T07:31:18.956Z,1.70
2023-01-20T07:33:46.818Z,1.70
2023-01-20T07:36:15.912Z,1.70
2023-01-20T07:38:50.752Z,1.70
2023-01-20T07:41:19.907Z,1.80
2023-01-20T07:43:49.677Z,1.80
2023-01-20T07:46:17.218Z,1.80
2023-01-20T07:48:44.190Z,1.80
2023-01-20T07:51:13.540Z,1.80
2023-01-20T07:53:51.808Z,1.80
2023-01-20T07:56:21.487Z,1.80
2023-01-20T07:58:53.638Z,1.80
2023-01-20T08:01:26.499Z,1.80
2023-01-20T08:03:56.730Z,1.80
2023-01-20T08:06:26.054Z,1.90
2023-01-20T08:08:54.603Z,1.90
2023-01-20T08:11:22.856Z,2.00
2023-01-20T08:13:49.874Z,2.00
2023-01-20T08:17:03.901Z,2.00
2023-01-20T08:19:30.884Z,2.00
2023-01-20T08:21:58.032Z,2.00
2023-01-20T08:24:25.067Z,2.00
2023-01-20T08:26:53.382Z,2.10
2023-01-20T08:29:20.350Z,2.10
2023-01-20T08:31:47.318Z,2.10
2023-01-20T08:34:14.874Z,2.10
2023-01-20T08:36:42.276Z,2.10
2023-01-20T08:39:11.322Z,2.10
2023-01-20T08:41:42.094Z,2.10
2023-01-20T08:44:10.749Z,2.10
2023-01-20T08:46:41.519Z,2.10
2023-01-20T08:49:19.220Z,2.10
2023-01-20T08:51:46.544Z,2.10
2023-01-20T08:54:14.922Z,2.20
2023-01-20T08:56:42.262Z,2.20
2023-01-20T08:59:09.219Z,2.20
2023-01-20T09:01:37.961Z,2.20
2023-01-20T09:04:07.160Z,2.20
2023-01-20T09:07:01.168Z,2.20
2023-01-20T09:09:28.191Z,2.30
2023-01-20T09:11:55.327Z,2.20
2023-01-20T09:14:26.429Z,2.20
2023-01-20T09:16:56.442Z,2.30
2023-01-20T09:19:26.526Z,2.30
2023-01-20T09:21:53.793Z,2.30
2023-01-20T09:24:21.290Z,2.30
2023-01-20T09:26:51.888Z,2.30
2023-01-20T09:29:20.752Z,2.30
2023-01-20T09:31:58.244Z,2.30
2023-01-20T09:34:27.783Z,2.30
2023-01-20T09:36:56.640Z,2.30
2023-01-20T09:39:45.691Z,2.30
2023-01-20T09:43:07.139Z,2.30
2023-01-20T09:45:56.217Z,2.30
2023-01-20T09:48:51.978Z,2.40
2023-01-20T09:51:49.846Z,2.30
2023-01-20T09:54:24.392Z,2.30
2023-01-20T09:56:54.727Z,2.30
2023-01-20T09:59:35.926Z,2.30
2023-01-20T10:02:12.341Z,2.30
2023-01-20T10:04:43.768Z,2.20
2023-01-20T10:07:30.001Z,2.20
2023-01-20T10:10:07.260Z,2.20
2023-01-20T10:12:40.487Z,2.20
2023-01-20T10:15:25.467Z,2.20
2023-01-20T10:18:06.491Z,2.20
2023-01-20T10:20:51.252Z,2.20
2023-01-20T10:23:29.617Z,2.20
2023-01-20T10:26:23.253Z,2.20
2023-01-20T10:29:04.028Z,2.20
2023-01-20T10:31:39.645Z,2.30
2023-01-20T10:34:12.727Z,2.30
2023-01-20T10:36:43.448Z,2.30
2023-01-20T10:39:39.881Z,2.30
2023-01-20T10:42:13.601Z,2.30
2023-01-20T10:44:41.305Z,2.40
2023-01-20T10:47:30.360Z,2.40
2023-01-20T10:50:28.487Z,2.40
2023-01-20T10:53:13.815Z,2.40
2023-01-20T10:56:19.082Z,2.40
2023-01-20T10:58:47.816Z,2.50
2023-01-20T11:01:19.158Z,2.50
2023-01-20T11:03:48.536Z,2.60
2023-01-20T11:06:26.653Z,2.60
2023-01-20T11:08:55.482Z,2.70
2023-01-20T11:11:26.719Z,2.70
2023-01-20T11:13:57.555Z,2.70
2023-01-20T11:16:31.377Z,2.80
2023-01-20T11:19:01.903Z,2.80
2023-01-20T11:21:36.755Z,2.80
2023-01-20T11:24:30.034Z,2.90
2023-01-20T11:27:07.040Z,3.00
2023-01-20T11:29:41.024Z,3.00
2023-01-20T11:32:28.372Z,3.00
2023-01-20T11:34:56.669Z,3.10
2023-01-20T11:37:26.735Z,3.10
2023-01-20T11:39:58.418Z,3.10
2023-01-20T11:42:26.353Z,3.10
2023-01-20T11:45:21.379Z,3.10
2023-01-20T11:48:16.476Z,3.10
2023-01-20T11:50:56.180Z,3.10
2023-01-20T11:53:29.154Z,3.10
2023-01-20T11:55:57.864Z,3.10
2023-01-20T11:58:32.359Z,3.10
2023-01-20T12:01:07.599Z,3.10
2023-01-20T12:04:16.419Z,3.20
2023-01-20T12:06:56.649Z,3.20
2023-01-20T12:09:35.102Z,3.20
2023-01-20T12:12:06.810Z,3.10
2023-01-20T12:15:06.093Z,3.20
2023-01-20T12:17:45.227Z,3.20
2023-01-20T12:20:30.115Z,3.20
2023-01-20T12:23:24.023Z,3.20
2023-01-20T12:26:00.624Z,3.20
2023-01-20T12:29:04.375Z,3.20
2023-01-20T12:31:32.649Z,3.10
2023-01-20T12:34:15.400Z,3.10
2023-01-20T12:36:49.845Z,3.10
2023-01-20T12:39:54.645Z,3.10
2023-01-20T12:42:29.065Z,3.10
2023-01-20T12:45:14.645Z,3.10
2023-01-20T12:47:57.365Z,3.10
2023-01-20T12:50:37.083Z,3.10
2023-01-20T12:53:31.201Z,3.10
2023-01-20T12:56:43.865Z,3.10
2023-01-20T12:59:32.347Z,3.10
2023-01-20T13:02:14.425Z,3.20
2023-01-20T13:04:56.499Z,3.20
2023-01-20T13:07:32.611Z,3.20
2023-01-20T13:10:11.768Z,3.20
2023-01-20T13:12:56.357Z,3.20
2023-01-20T13:15:29.362Z,3.20
2023-01-20T13:18:21.962Z,3.20
2023-01-20T13:20:54.536Z,3.30
2023-01-20T13:23:35.819Z,3.30
2023-01-20T13:26:06.567Z,3.30
2023-01-20T13:28:34.179Z,3.30
2023-01-20T13:31:24.365Z,3.30
2023-01-20T13:33:51.575Z,3.20
2023-01-20T13:36:21.743Z,3.20
2023-01-20T13:38:50.907Z,3.20
2023-01-20T13:41:47.639Z,3.20
2023-01-20T13:44:34.395Z,3.20
2023-01-20T13:47:02.778Z,3.20
2023-01-20T13:49:49.739Z,3.20
2023-01-20T13:52:55.005Z,3.20
2023-01-20T13:55:51.288Z,3.20
2023-01-20T13:58:23.783Z,3.20
2023-01-20T14:00:54.484Z,3.10
2023-01-20T14:03:33.789Z,3.10
2023-01-20T14:06:20.515Z,3.10
2023-01-20T14:09:02.132Z,3.10
2023-01-20T14:11:30.527Z,3.10
2023-01-20T14:14:06.783Z,3.10
2023-01-20T14:16:42.511Z,3.20
2023-01-20T14:19:43.988Z,3.20
2023-01-20T14:22:26.072Z,3.10
2023-01-20T14:24:59.167Z,3.10
2023-01-20T14:27:38.124Z,3.10
2023-01-20T14:30:24.598Z,3.10
2023-01-20T14:32:56.103Z,3.10
2023-01-20T14:35:31.319Z,3.10
2023-01-20T14:37:59.423Z,3.10
2023-01-20T14:40:35.405Z,3.10
2023-01-20T14:43:24.027Z,3.10
2023-01-20T14:45:55.358Z,3.10
2023-01-20T14:48:35.257Z,3.10
2023-01-20T14:51:04.499Z,3.10
2023-01-20T14:53:31.900Z,3.10
2023-01-20T14:56:04.659Z,3.10
2023-01-20T14:58:31.956Z,3.10
2023-01-20T15:01:06.729Z,3.10
2023-01-20T15:03:34.376Z,3.20
2023-01-20T15:06:24.321Z,3.10
2023-01-20T15:09:05.661Z,3.20
2023-01-20T15:11:36.887Z,3.10
2023-01-20T15:14:10.174Z,3.10
2023-01-20T15:16:37.292Z,3.10
2023-01-20T15:19:16.975Z,3.10
2023-01-20T15:21:51.388Z,3.10
2023-01-20T15:24:20.747Z,3.10
2023-01-20T15:26:56.220Z,3.10
2023-01-20T15:29:28.431Z,3.10
2023-01-20T15:31:59.446Z,3.10
2023-01-20T15:34:27.717Z,3.10
2023-01-20T15:37:02.437Z,3.20
2023-01-20T15:39:32.856Z,3.20
2023-01-20T15:42:02.355Z,3.10
2023-01-20T15:44:29.553Z,3.10
2023-01-20T15:47:01.987Z,3.10
2023-01-20T15:49:31.030Z,3.10
2023-01-20T15:52:00.584Z,3.20
2023-01-20T15:54:27.782Z,3.10
2023-01-20T15:56:55.018Z,3.10
2023-01-20T16:02:39.263Z,3.10
2023-01-20T16:05:06.740Z,3.10
2023-01-20T16:07:33.859Z,3.10
2023-01-20T16:10:00.969Z,3.10
2023-01-20T16:12:28.050Z,3.10
2023-01-20T16:14:55.606Z,3.10
2023-01-20T16:17:30.570Z,3.00
2023-01-20T16:19:58.283Z,3.10
2023-01-20T16:22:25.697Z,3.10
2023-01-20T16:24:52.953Z,3.00
2023-01-20T16:27:24.797Z,3.00
2023-01-20T16:29:51.972Z,3.00
2023-01-20T16:32:24.298Z,3.00
2023-01-20T16:34:51.772Z,3.00
2023-01-20T16:37:21.681Z,3.00
2023-01-20T16:39:48.740Z,2.90
2023-01-20T16:42:17.073Z,2.90
2023-01-20T16:44:44.346Z,2.90
2023-01-20T16:47:11.385Z,2.90
2023-01-20T16:49:39.338Z,2.80
2023-01-20T16:52:06.439Z,2.80
2023-01-20T16:54:33.472Z,2.80
2023-01-20T16:57:00.496Z,2.70
2023-01-20T16:59:27.509Z,2.70
2023-01-20T17:01:54.804Z,2.60
2023-01-20T17:04:31.390Z,2.60
2023-01-20T17:06:58.524Z,2.50
2023-01-20T17:09:30.233Z,2.50
2023-01-20T17:12:02.599Z,2.50
2023-01-20T17:14:32.478Z,2.40
2023-01-20T17:17:12.945Z,2.40
2023-01-20T17:19:41.355Z,2.30
2023-01-20T17:22:14.744Z,2.20
2023-01-20T17:24:43.319Z,2.20
2023-01-20T17:27:19.577Z,2.10
2023-01-20T17:29:46.693Z,2.10
2023-01-20T17:32:19.746Z,2.00
2023-01-20T17:34:48.402Z,2.00
2023-01-20T17:37:15.615Z,2.00
2023-01-20T17:39:50.452Z,1.90
2023-01-20T17:42:36.373Z,1.90
2023-01-20T17:45:03.959Z,1.90
2023-01-20T17:47:40.605Z,1.80
2023-01-20T17:50:08.448Z,1.80
2023-01-20T17:52:40.920Z,1.70
2023-01-20T17:55:10.840Z,1.70
2023-01-20T17:57:37.948Z,1.70
2023-01-20T18:00:06.438Z,1.70
2023-01-20T18:02:36.923Z,1.60
2023-01-20T18:05:15.509Z,1.60
2023-01-20T18:07:46.901Z,1.60
2023-01-20T18:10:14.946Z,1.60
2023-01-20T18:12:46.492Z,1.60
2023-01-20T18:15:19.600Z,1.60
2023-01-20T18:18:01.225Z,1.60
2023-01-20T18:20:28.435Z,1.60
2023-01-20T18:22:58.130Z,1.60
2023-01-20T18:25:25.370Z,1.60
2023-01-20T18:27:56.278Z,1.60
2023-01-20T18:30:26.311Z,1.60
2023-01-20T18:32:57.701Z,1.70
2023-01-20T18:35:24.939Z,1.80
2023-01-20T18:37:54.535Z,1.80
2023-01-20T18:40:21.628Z,1.90
2023-01-20T18:42:48.952Z,1.90
2023-01-20T18:45:22.733Z,1.90
2023-01-20T18:47:50.228Z,1.90
2023-01-20T18:50:17.912Z,1.80
2023-01-20T18:52:57.751Z,1.80
2023-01-20T18:59:19.768Z,1.70
2023-01-20T19:01:50.950Z,1.60
2023-01-20T19:04:18.035Z,1.60
2023-01-20T19:06:48.171Z,1.50
2023-01-20T19:09:16.909Z,1.50
2023-01-20T19:11:44.221Z,1.50
2023-01-20T19:14:14.057Z,1.40
2023-01-20T19:16:49.563Z,1.40
2023-01-20T19:19:19.159Z,1.40
2023-01-20T19:21:49.796Z,1.40
2023-01-20T19:24:20.187Z,1.30
2023-01-20T19:26:47.954Z,1.30
2023-01-20T19:29:17.275Z,1.30
2023-01-20T19:31:44.558Z,1.30
2023-01-20T19:34:11.864Z,1.30
2023-01-20T19:36:39.129Z,1.30
2023-01-20T19:39:06.567Z,1.20
2023-01-20T19:41:35.986Z,1.20
2023-01-20T19:44:06.596Z,1.20
2023-01-20T19:46:37.053Z,1.20
2023-01-20T19:49:04.423Z,1.30
2023-01-20T19:51:31.668Z,1.30
2023-01-20T19:54:01.101Z,1.30
2023-01-20T19:56:30.504Z,1.30
2023-01-20T19:59:01.125Z,1.30
2023-01-20T20:01:31.757Z,1.30
2023-01-20T20:04:03.591Z,1.30
2023-01-20T20:06:32.110Z,1.20
2023-01-20T20:09:05.865Z,1.20
2023-01-20T20:11:33.833Z,1.20
2023-01-20T20:14:02.655Z,1.20
2023-01-20T20:16:32.725Z,1.20
2023-01-20T20:19:00.023Z,1.10
2023-01-20T20:21:27.563Z,1.10
2023-01-20T20:23:57.460Z,1.10
2023-01-20T20:26:28.937Z,1.10
2023-01-20T20:28:56.801Z,1.10
2023-01-20T20:31:29.463Z,1.10
2023-01-20T20:34:01.023Z,1.10
2023-01-20T20:36:29.742Z,1.00
2023-01-20T20:39:01.537Z,1.00
2023-01-20T20:41:31.882Z,1.00
2023-01-20T20:44:00.878Z,1.00
2023-01-20T20:46:29.961Z,1.00
2023-01-20T20:49:16.490Z,1.00
2023-01-20T20:51:46.886Z,1.00
2023-01-20T20:54:17.089Z,0.90
2023-01-20T20:56:45.215Z,0.90
2023-01-20T20:59:12.512Z,0.90
2023-01-20T21:01:43.848Z,0.90
2023-01-20T21:04:11.735Z,0.90
2023-01-20T21:06:41.906Z,0.90
2023-01-20T21:09:09.568Z,0.90
2023-01-20T21:11:38.451Z,0.90
2023-01-20T21:14:05.730Z,0.90
2023-01-20T21:16:32.915Z,0.90
2023-01-20T21:19:01.461Z,0.90
2023-01-20T21:21:31.535Z,0.90
2023-01-20T21:23:59.759Z,0.90
2023-01-20T21:26:30.199Z,0.90
2023-01-20T21:29:00.270Z,0.90
2023-01-20T21:31:28.069Z,0.80
2023-01-20T21:34:00.277Z,0.80
2023-01-20T21:36:29.806Z,0.80
2023-01-20T21:38:57.920Z,0.80
2023-01-20T21:41:25.063Z,0.80
2023-01-20T21:44:10.311Z,0.80
2023-01-20T21:46:40.373Z,0.80
2023-01-20T21:49:26.880Z,0.70
2023-01-20T21:52:15.765Z,0.70
2023-01-20T21:54:45.037Z,0.70
2023-01-20T21:57:15.033Z,0.60
2023-01-20T21:59:43.189Z,0.60
2023-01-20T22:02:13.505Z,0.60
2023-01-20T22:04:41.086Z,0.60
2023-01-20T22:07:08.618Z,0.60
2023-01-20T22:09:35.979Z,0.60
2023-01-20T22:12:03.538Z,0.50
2023-01-20T22:14:32.427Z,0.60
2023-01-20T22:16:59.766Z,0.50
2023-01-20T22:19:27.483Z,0.50
2023-01-20T22:21:54.732Z,0.50
2023-01-20T22:24:21.773Z,0.50
2023-01-20T22:26:53.372Z,0.40
2023-01-20T22:29:24.415Z,0.40
2023-01-20T22:31:56.192Z,0.40
2023-01-20T22:34:26.536Z,0.40
2023-01-20T22:36:58.081Z,0.40
2023-01-20T22:39:25.346Z,0.40
2023-01-20T22:41:52.307Z,0.40
2023-01-20T22:44:19.488Z,0.40
2023-01-20T22:46:46.831Z,0.40
2023-01-20T22:49:14.069Z,0.40
2023-01-20T22:51:41.178Z,0.30
2023-01-20T22:54:10.944Z,0.30
2023-01-20T22:56:39.190Z,0.30
2023-01-20T22:59:06.690Z,0.30
2023-01-20T23:01:35.863Z,0.30
2023-01-20T23:04:05.269Z,0.30
2023-01-20T23:06:34.883Z,0.30
2023-01-20T23:09:05.523Z,0.20
2023-01-20T23:11:33.949Z,0.20
2023-01-20T23:14:01.140Z,0.20
2023-01-20T23:16:28.489Z,0.20
2023-01-20T23:18:56.089Z,0.20
2023-01-20T23:21:24.389Z,0.20
2023-01-20T23:23:54.938Z,0.10
2023-01-20T23:26:29.202Z,0.10
2023-01-20T23:28:57.764Z,0.10
2023-01-20T23:31:28.567Z,0.10
2023-01-20T23:33:55.844Z,0.10
2023-01-20T23:36:25.413Z,0.10
2023-01-20T23:38:56.900Z,0.10
2023-01-20T23:41:24.571Z,0.10
2023-01-20T23:43:53.315Z,0.10
2023-01-20T23:46:20.348Z,0.10
2023-01-20T23:48:47.643Z,0.10
2023-01-20T23:51:15.102Z,0.00
2023-01-20T23:53:44.929Z,0.00
2023-01-20T23:56:20.664Z,0.00
2023-01-20T23:58:48.396Z,0.10
